sensor_id;sensor_type;location;lat;lon;timestamp;P1;durP1;ratioP1;P2;durP2;ratioP2
12585;SDS011;6358;50.760;0.282;2022-11-14T00:01:17;3.45;;;2.10;;
12585;SDS011;6358;50.760;0.282;2022-11-14T00:03:43;2.30;;;2.10;;
12585;SDS011;6358;50.760;0.282;2022-11-14T00:06:09;3.35;;;2.13;;
12585;SDS011;6358;50.760;0.282;2022-11-14T00:08:35;2.60;;;2.40;;
12585;SDS011;6358;50.760;0.282;2022-11-14T00:11:01;2.60;;;2.10;;
12585;SDS011;6358;50.760;0.282;2022-11-14T00:13:27;2.47;;;2.28;;
12585;SDS011;6358;50.760;0.282;2022-11-14T00:15:53;2.25;;;2.05;;
12585;SDS011;6358;50.760;0.282;2022-11-14T00:18:20;2.40;;;2.20;;
12585;SDS011;6358;50.760;0.282;2022-11-14T00:20:47;2.80;;;2.50;;
12585;SDS011;6358;50.760;0.282;2022-11-14T00:23:13;3.72;;;2.50;;
12585;SDS011;6358;50.760;0.282;2022-11-14T00:25:39;2.58;;;2.38;;
12585;SDS011;6358;50.760;0.282;2022-11-14T00:28:05;2.63;;;2.35;;
12585;SDS011;6358;50.760;0.282;2022-11-14T00:30:31;2.58;;;2.33;;
12585;SDS011;6358;50.760;0.282;2022-11-14T00:32:57;3.47;;;2.50;;
12585;SDS011;6358;50.760;0.282;2022-11-14T00:35:23;3.25;;;2.42;;
12585;SDS011;6358;50.760;0.282;2022-11-14T00:37:49;2.70;;;2.50;;
12585;SDS011;6358;50.760;0.282;2022-11-14T00:40:15;2.60;;;2.40;;
12585;SDS011;6358;50.760;0.282;2022-11-14T00:42:41;2.60;;;2.30;;
12585;SDS011;6358;50.760;0.282;2022-11-14T00:45:08;3.03;;;2.50;;
12585;SDS011;6358;50.760;0.282;2022-11-14T00:47:35;2.35;;;2.13;;
12585;SDS011;6358;50.760;0.282;2022-11-14T00:50:01;3.53;;;2.85;;
12585;SDS011;6358;50.760;0.282;2022-11-14T00:52:27;2.50;;;2.30;;
12585;SDS011;6358;50.760;0.282;2022-11-14T00:54:53;3.33;;;2.67;;
12585;SDS011;6358;50.760;0.282;2022-11-14T00:57:19;2.87;;;2.67;;
12585;SDS011;6358;50.760;0.282;2022-11-14T00:59:45;2.75;;;2.53;;
12585;SDS011;6358;50.760;0.282;2022-11-14T01:02:11;2.67;;;2.40;;
12585;SDS011;6358;50.760;0.282;2022-11-14T01:04:37;2.80;;;2.50;;
12585;SDS011;6358;50.760;0.282;2022-11-14T01:07:04;2.80;;;2.60;;
12585;SDS011;6358;50.760;0.282;2022-11-14T01:09:30;2.67;;;2.47;;
12585;SDS011;6358;50.760;0.282;2022-11-14T01:11:56;2.95;;;2.65;;
12585;SDS011;6358;50.760;0.282;2022-11-14T01:14:22;2.63;;;2.42;;
12585;SDS011;6358;50.760;0.282;2022-11-14T01:16:48;3.08;;;2.55;;
12585;SDS011;6358;50.760;0.282;2022-11-14T01:19:14;2.83;;;2.45;;
12585;SDS011;6358;50.760;0.282;2022-11-14T01:21:40;2.50;;;2.30;;
12585;SDS011;6358;50.760;0.282;2022-11-14T01:24:06;2.80;;;2.60;;
12585;SDS011;6358;50.760;0.282;2022-11-14T01:26:32;2.88;;;2.50;;
12585;SDS011;6358;50.760;0.282;2022-11-14T01:28:58;2.85;;;2.63;;
12585;SDS011;6358;50.760;0.282;2022-11-14T01:31:24;2.50;;;2.30;;
12585;SDS011;6358;50.760;0.282;2022-11-14T01:33:51;3.70;;;2.70;;
12585;SDS011;6358;50.760;0.282;2022-11-14T01:36:18;2.70;;;2.50;;
12585;SDS011;6358;50.760;0.282;2022-11-14T01:38:44;2.58;;;2.38;;
12585;SDS011;6358;50.760;0.282;2022-11-14T01:41:14;2.90;;;2.60;;
12585;SDS011;6358;50.760;0.282;2022-11-14T01:43:40;2.92;;;2.60;;
12585;SDS011;6358;50.760;0.282;2022-11-14T01:46:14;3.00;;;2.70;;
12585;SDS011;6358;50.760;0.282;2022-11-14T01:53:53;2.50;;;2.30;;
12585;SDS011;6358;50.760;0.282;2022-11-14T01:56:25;3.67;;;2.78;;
12585;SDS011;6358;50.760;0.282;2022-11-14T01:58:57;2.60;;;2.40;;
12585;SDS011;6358;50.760;0.282;2022-11-14T02:01:24;2.78;;;2.58;;
12585;SDS011;6358;50.760;0.282;2022-11-14T02:03:50;2.78;;;2.42;;
12585;SDS011;6358;50.760;0.282;2022-11-14T02:06:18;2.67;;;2.47;;
12585;SDS011;6358;50.760;0.282;2022-11-14T02:08:45;3.25;;;2.75;;
12585;SDS011;6358;50.760;0.282;2022-11-14T02:11:11;2.80;;;2.60;;
12585;SDS011;6358;50.760;0.282;2022-11-14T02:13:37;4.18;;;2.67;;
12585;SDS011;6358;50.760;0.282;2022-11-14T02:16:04;2.90;;;2.70;;
12585;SDS011;6358;50.760;0.282;2022-11-14T02:18:30;3.63;;;2.70;;
12585;SDS011;6358;50.760;0.282;2022-11-14T02:20:56;3.00;;;2.67;;
12585;SDS011;6358;50.760;0.282;2022-11-14T02:23:26;2.67;;;2.47;;
12585;SDS011;6358;50.760;0.282;2022-11-14T02:25:53;3.08;;;2.60;;
12585;SDS011;6358;50.760;0.282;2022-11-14T02:28:19;2.80;;;2.60;;
12585;SDS011;6358;50.760;0.282;2022-11-14T02:30:46;2.80;;;2.55;;
12585;SDS011;6358;50.760;0.282;2022-11-14T02:33:12;2.88;;;2.47;;
12585;SDS011;6358;50.760;0.282;2022-11-14T02:35:38;2.88;;;2.33;;
12585;SDS011;6358;50.760;0.282;2022-11-14T02:38:04;3.10;;;2.50;;
12585;SDS011;6358;50.760;0.282;2022-11-14T02:40:31;3.00;;;2.70;;
12585;SDS011;6358;50.760;0.282;2022-11-14T02:42:57;2.72;;;2.53;;
12585;SDS011;6358;50.760;0.282;2022-11-14T02:45:23;2.72;;;2.53;;
12585;SDS011;6358;50.760;0.282;2022-11-14T02:47:49;3.25;;;2.70;;
12585;SDS011;6358;50.760;0.282;2022-11-14T02:50:15;2.63;;;2.42;;
12585;SDS011;6358;50.760;0.282;2022-11-14T02:52:41;3.00;;;2.60;;
12585;SDS011;6358;50.760;0.282;2022-11-14T02:55:08;2.65;;;2.45;;
12585;SDS011;6358;50.760;0.282;2022-11-14T02:57:34;2.83;;;2.63;;
12585;SDS011;6358;50.760;0.282;2022-11-14T03:00:00;3.20;;;2.90;;
12585;SDS011;6358;50.760;0.282;2022-11-14T03:02:26;2.65;;;2.45;;
12585;SDS011;6358;50.760;0.282;2022-11-14T03:04:52;3.05;;;2.85;;
12585;SDS011;6358;50.760;0.282;2022-11-14T03:07:18;3.75;;;2.67;;
12585;SDS011;6358;50.760;0.282;2022-11-14T03:09:44;3.28;;;2.70;;
12585;SDS011;6358;50.760;0.282;2022-11-14T03:12:11;3.08;;;2.80;;
12585;SDS011;6358;50.760;0.282;2022-11-14T03:14:40;3.10;;;2.80;;
12585;SDS011;6358;50.760;0.282;2022-11-14T03:17:06;2.90;;;2.70;;
12585;SDS011;6358;50.760;0.282;2022-11-14T03:19:32;2.83;;;2.60;;
12585;SDS011;6358;50.760;0.282;2022-11-14T03:21:58;2.70;;;2.50;;
12585;SDS011;6358;50.760;0.282;2022-11-14T03:24:24;2.80;;;2.60;;
12585;SDS011;6358;50.760;0.282;2022-11-14T03:26:50;2.78;;;2.58;;
12585;SDS011;6358;50.760;0.282;2022-11-14T03:29:16;3.15;;;2.80;;
12585;SDS011;6358;50.760;0.282;2022-11-14T03:31:42;2.95;;;2.70;;
12585;SDS011;6358;50.760;0.282;2022-11-14T03:34:09;3.20;;;2.90;;
12585;SDS011;6358;50.760;0.282;2022-11-14T03:36:35;2.78;;;2.58;;
12585;SDS011;6358;50.760;0.282;2022-11-14T03:39:02;3.50;;;2.55;;
12585;SDS011;6358;50.760;0.282;2022-11-14T03:41:28;2.80;;;2.60;;
12585;SDS011;6358;50.760;0.282;2022-11-14T03:43:54;3.10;;;2.80;;
12585;SDS011;6358;50.760;0.282;2022-11-14T03:46:20;2.80;;;2.60;;
12585;SDS011;6358;50.760;0.282;2022-11-14T03:48:46;3.10;;;2.60;;
12585;SDS011;6358;50.760;0.282;2022-11-14T03:51:13;4.13;;;3.10;;
12585;SDS011;6358;50.760;0.282;2022-11-14T03:53:39;2.80;;;2.60;;
12585;SDS011;6358;50.760;0.282;2022-11-14T03:56:05;3.22;;;2.90;;
12585;SDS011;6358;50.760;0.282;2022-11-14T03:58:31;3.03;;;2.65;;
12585;SDS011;6358;50.760;0.282;2022-11-14T04:00:57;2.95;;;2.75;;
12585;SDS011;6358;50.760;0.282;2022-11-14T04:03:23;4.28;;;2.85;;
12585;SDS011;6358;50.760;0.282;2022-11-14T04:05:49;2.90;;;2.60;;
12585;SDS011;6358;50.760;0.282;2022-11-14T04:08:16;2.92;;;2.60;;
12585;SDS011;6358;50.760;0.282;2022-11-14T04:10:42;2.90;;;2.70;;
12585;SDS011;6358;50.760;0.282;2022-11-14T04:13:11;3.93;;;2.73;;
12585;SDS011;6358;50.760;0.282;2022-11-14T04:15:37;2.73;;;2.53;;
12585;SDS011;6358;50.760;0.282;2022-11-14T04:18:03;2.80;;;2.60;;
12585;SDS011;6358;50.760;0.282;2022-11-14T04:20:29;3.10;;;2.80;;
12585;SDS011;6358;50.760;0.282;2022-11-14T04:22:55;3.17;;;2.83;;
12585;SDS011;6358;50.760;0.282;2022-11-14T04:25:21;3.63;;;3.30;;
12585;SDS011;6358;50.760;0.282;2022-11-14T04:27:47;3.55;;;3.08;;
12585;SDS011;6358;50.760;0.282;2022-11-14T04:30:13;2.97;;;2.77;;
12585;SDS011;6358;50.760;0.282;2022-11-14T04:32:40;3.90;;;2.88;;
12585;SDS011;6358;50.760;0.282;2022-11-14T04:35:06;2.97;;;2.63;;
12585;SDS011;6358;50.760;0.282;2022-11-14T04:37:32;2.93;;;2.67;;
12585;SDS011;6358;50.760;0.282;2022-11-14T04:39:58;3.20;;;2.90;;
12585;SDS011;6358;50.760;0.282;2022-11-14T04:42:26;2.80;;;2.60;;
12585;SDS011;6358;50.760;0.282;2022-11-14T04:44:52;2.97;;;2.77;;
12585;SDS011;6358;50.760;0.282;2022-11-14T04:47:18;3.30;;;3.00;;
12585;SDS011;6358;50.760;0.282;2022-11-14T04:49:44;3.23;;;2.93;;
12585;SDS011;6358;50.760;0.282;2022-11-14T04:52:10;3.00;;;2.70;;
12585;SDS011;6358;50.760;0.282;2022-11-14T04:54:37;2.70;;;2.50;;
12585;SDS011;6358;50.760;0.282;2022-11-14T04:57:03;3.10;;;2.90;;
12585;SDS011;6358;50.760;0.282;2022-11-14T04:59:29;2.90;;;2.70;;
12585;SDS011;6358;50.760;0.282;2022-11-14T05:01:55;3.00;;;2.70;;
12585;SDS011;6358;50.760;0.282;2022-11-14T05:04:21;3.33;;;2.97;;
12585;SDS011;6358;50.760;0.282;2022-11-14T05:06:47;3.60;;;3.07;;
12585;SDS011;6358;50.760;0.282;2022-11-14T05:09:13;3.30;;;3.00;;
12585;SDS011;6358;50.760;0.282;2022-11-14T05:11:39;3.28;;;2.97;;
12585;SDS011;6358;50.760;0.282;2022-11-14T05:14:05;3.53;;;2.90;;
12585;SDS011;6358;50.760;0.282;2022-11-14T05:16:31;3.10;;;2.80;;
12585;SDS011;6358;50.760;0.282;2022-11-14T05:18:57;3.10;;;2.90;;
12585;SDS011;6358;50.760;0.282;2022-11-14T05:21:23;3.67;;;2.90;;
12585;SDS011;6358;50.760;0.282;2022-11-14T05:23:50;2.90;;;2.70;;
12585;SDS011;6358;50.760;0.282;2022-11-14T05:26:16;3.60;;;3.03;;
12585;SDS011;6358;50.760;0.282;2022-11-14T05:28:42;3.13;;;2.83;;
12585;SDS011;6358;50.760;0.282;2022-11-14T05:31:09;3.53;;;3.23;;
12585;SDS011;6358;50.760;0.282;2022-11-14T05:33:42;2.93;;;2.63;;
12585;SDS011;6358;50.760;0.282;2022-11-14T05:36:09;3.07;;;2.77;;
12585;SDS011;6358;50.760;0.282;2022-11-14T05:38:35;3.03;;;2.80;;
12585;SDS011;6358;50.760;0.282;2022-11-14T05:41:05;3.27;;;2.97;;
12585;SDS011;6358;50.760;0.282;2022-11-14T05:43:32;3.07;;;2.73;;
12585;SDS011;6358;50.760;0.282;2022-11-14T05:46:01;3.60;;;3.23;;
12585;SDS011;6358;50.760;0.282;2022-11-14T05:48:28;3.27;;;2.97;;
12585;SDS011;6358;50.760;0.282;2022-11-14T05:50:56;3.13;;;2.90;;
12585;SDS011;6358;50.760;0.282;2022-11-14T05:53:22;3.17;;;2.87;;
12585;SDS011;6358;50.760;0.282;2022-11-14T05:55:48;3.23;;;2.97;;
12585;SDS011;6358;50.760;0.282;2022-11-14T05:58:14;3.10;;;2.57;;
12585;SDS011;6358;50.760;0.282;2022-11-14T06:00:40;3.53;;;2.90;;
12585;SDS011;6358;50.760;0.282;2022-11-14T06:03:07;3.73;;;2.90;;
12585;SDS011;6358;50.760;0.282;2022-11-14T06:05:33;3.03;;;2.77;;
12585;SDS011;6358;50.760;0.282;2022-11-14T06:08:00;3.20;;;2.83;;
12585;SDS011;6358;50.760;0.282;2022-11-14T06:10:26;3.13;;;2.72;;
12585;SDS011;6358;50.760;0.282;2022-11-14T06:12:52;3.80;;;2.80;;
12585;SDS011;6358;50.760;0.282;2022-11-14T06:15:19;4.73;;;3.30;;
12585;SDS011;6358;50.760;0.282;2022-11-14T06:17:45;3.00;;;2.67;;
12585;SDS011;6358;50.760;0.282;2022-11-14T06:20:11;3.05;;;2.72;;
12585;SDS011;6358;50.760;0.282;2022-11-14T06:22:40;3.43;;;2.87;;
12585;SDS011;6358;50.760;0.282;2022-11-14T06:25:07;2.93;;;2.67;;
12585;SDS011;6358;50.760;0.282;2022-11-14T06:27:33;2.70;;;2.50;;
12585;SDS011;6358;50.760;0.282;2022-11-14T06:29:59;3.10;;;2.90;;
12585;SDS011;6358;50.760;0.282;2022-11-14T06:32:26;3.27;;;2.90;;
12585;SDS011;6358;50.760;0.282;2022-11-14T06:34:52;3.10;;;2.80;;
12585;SDS011;6358;50.760;0.282;2022-11-14T06:37:18;3.50;;;2.80;;
12585;SDS011;6358;50.760;0.282;2022-11-14T06:39:44;3.00;;;2.70;;
12585;SDS011;6358;50.760;0.282;2022-11-14T06:42:10;3.00;;;2.70;;
12585;SDS011;6358;50.760;0.282;2022-11-14T06:44:36;3.17;;;2.83;;
12585;SDS011;6358;50.760;0.282;2022-11-14T06:47:02;3.23;;;2.60;;
12585;SDS011;6358;50.760;0.282;2022-11-14T06:49:28;3.03;;;2.70;;
12585;SDS011;6358;50.760;0.282;2022-11-14T06:51:54;3.07;;;2.87;;
12585;SDS011;6358;50.760;0.282;2022-11-14T06:54:20;3.23;;;2.93;;
12585;SDS011;6358;50.760;0.282;2022-11-14T06:56:46;3.20;;;2.90;;
12585;SDS011;6358;50.760;0.282;2022-11-14T06:59:12;3.53;;;2.63;;
12585;SDS011;6358;50.760;0.282;2022-11-14T07:01:39;3.10;;;2.80;;
12585;SDS011;6358;50.760;0.282;2022-11-14T07:04:05;3.27;;;2.80;;
12585;SDS011;6358;50.760;0.282;2022-11-14T07:06:31;2.80;;;2.60;;
12585;SDS011;6358;50.760;0.282;2022-11-14T07:08:57;2.90;;;2.70;;
12585;SDS011;6358;50.760;0.282;2022-11-14T07:11:25;3.30;;;3.00;;
12585;SDS011;6358;50.760;0.282;2022-11-14T07:14:00;2.97;;;2.77;;
12585;SDS011;6358;50.760;0.282;2022-11-14T07:16:30;3.37;;;2.73;;
12585;SDS011;6358;50.760;0.282;2022-11-14T07:18:59;3.07;;;2.80;;
12585;SDS011;6358;50.760;0.282;2022-11-14T07:21:27;2.93;;;2.73;;
12585;SDS011;6358;50.760;0.282;2022-11-14T07:23:53;3.67;;;2.73;;
12585;SDS011;6358;50.760;0.282;2022-11-14T07:26:19;3.30;;;3.00;;
12585;SDS011;6358;50.760;0.282;2022-11-14T07:28:45;3.37;;;3.07;;
12585;SDS011;6358;50.760;0.282;2022-11-14T07:31:12;3.00;;;2.80;;
12585;SDS011;6358;50.760;0.282;2022-11-14T07:33:39;3.30;;;3.00;;
12585;SDS011;6358;50.760;0.282;2022-11-14T07:36:05;3.60;;;3.03;;
12585;SDS011;6358;50.760;0.282;2022-11-14T07:38:32;2.90;;;2.60;;
12585;SDS011;6358;50.760;0.282;2022-11-14T07:40:59;2.70;;;2.50;;
12585;SDS011;6358;50.760;0.282;2022-11-14T07:43:26;3.20;;;2.20;;
12585;SDS011;6358;50.760;0.282;2022-11-14T07:45:52;2.60;;;2.40;;
12585;SDS011;6358;50.760;0.282;2022-11-14T07:48:18;3.05;;;2.80;;
12585;SDS011;6358;50.760;0.282;2022-11-14T07:50:46;3.08;;;2.55;;
12585;SDS011;6358;50.760;0.282;2022-11-14T07:53:12;3.30;;;2.67;;
12585;SDS011;6358;50.760;0.282;2022-11-14T07:55:39;3.10;;;2.73;;
12585;SDS011;6358;50.760;0.282;2022-11-14T07:58:05;5.03;;;2.87;;
12585;SDS011;6358;50.760;0.282;2022-11-14T08:00:31;4.63;;;2.60;;
12585;SDS011;6358;50.760;0.282;2022-11-14T08:02:57;3.60;;;2.77;;
12585;SDS011;6358;50.760;0.282;2022-11-14T08:05:23;5.40;;;2.97;;
12585;SDS011;6358;50.760;0.282;2022-11-14T08:07:50;3.28;;;2.70;;
12585;SDS011;6358;50.760;0.282;2022-11-14T08:10:16;9.53;;;3.10;;
12585;SDS011;6358;50.760;0.282;2022-11-14T08:12:43;3.53;;;2.87;;
12585;SDS011;6358;50.760;0.282;2022-11-14T08:15:10;2.57;;;2.37;;
12585;SDS011;6358;50.760;0.282;2022-11-14T08:17:36;2.73;;;2.53;;
12585;SDS011;6358;50.760;0.282;2022-11-14T08:20:03;4.87;;;2.93;;
12585;SDS011;6358;50.760;0.282;2022-11-14T08:22:29;3.47;;;2.43;;
12585;SDS011;6358;50.760;0.282;2022-11-14T08:24:55;2.90;;;2.60;;
12585;SDS011;6358;50.760;0.282;2022-11-14T08:27:22;3.22;;;2.50;;
12585;SDS011;6358;50.760;0.282;2022-11-14T08:29:48;3.87;;;2.77;;
12585;SDS011;6358;50.760;0.282;2022-11-14T08:32:18;3.10;;;2.80;;
12585;SDS011;6358;50.760;0.282;2022-11-14T08:34:44;3.00;;;2.70;;
12585;SDS011;6358;50.760;0.282;2022-11-14T08:37:10;3.30;;;2.80;;
12585;SDS011;6358;50.760;0.282;2022-11-14T08:39:36;3.03;;;2.83;;
12585;SDS011;6358;50.760;0.282;2022-11-14T08:42:02;2.80;;;2.57;;
12585;SDS011;6358;50.760;0.282;2022-11-14T08:44:28;3.60;;;2.70;;
12585;SDS011;6358;50.760;0.282;2022-11-14T08:46:54;5.50;;;2.85;;
12585;SDS011;6358;50.760;0.282;2022-11-14T08:49:23;2.93;;;2.63;;
12585;SDS011;6358;50.760;0.282;2022-11-14T08:51:50;10.93;;;3.20;;
12585;SDS011;6358;50.760;0.282;2022-11-14T08:54:16;9.00;;;2.80;;
12585;SDS011;6358;50.760;0.282;2022-11-14T08:56:42;6.43;;;2.70;;
12585;SDS011;6358;50.760;0.282;2022-11-14T08:59:08;4.10;;;2.90;;
12585;SDS011;6358;50.760;0.282;2022-11-14T09:01:34;10.65;;;3.35;;
12585;SDS011;6358;50.760;0.282;2022-11-14T09:04:01;17.42;;;3.40;;
12585;SDS011;6358;50.760;0.282;2022-11-14T09:06:27;9.47;;;2.80;;
12585;SDS011;6358;50.760;0.282;2022-11-14T09:08:53;10.40;;;3.00;;
12585;SDS011;6358;50.760;0.282;2022-11-14T09:11:20;7.23;;;3.10;;
12585;SDS011;6358;50.760;0.282;2022-11-14T09:13:46;6.57;;;2.97;;
12585;SDS011;6358;50.760;0.282;2022-11-14T09:16:12;8.13;;;3.20;;
12585;SDS011;6358;50.760;0.282;2022-11-14T09:18:38;5.78;;;2.75;;
12585;SDS011;6358;50.760;0.282;2022-11-14T09:21:06;4.93;;;2.73;;
12585;SDS011;6358;50.760;0.282;2022-11-14T09:23:32;5.93;;;2.80;;
12585;SDS011;6358;50.760;0.282;2022-11-14T09:26:02;4.40;;;2.80;;
12585;SDS011;6358;50.760;0.282;2022-11-14T09:28:29;4.10;;;2.57;;
12585;SDS011;6358;50.760;0.282;2022-11-14T09:30:59;2.92;;;2.55;;
12585;SDS011;6358;50.760;0.282;2022-11-14T09:33:25;5.65;;;2.88;;
12585;SDS011;6358;50.760;0.282;2022-11-14T09:35:55;6.32;;;3.40;;
12585;SDS011;6358;50.760;0.282;2022-11-14T09:38:21;5.67;;;3.27;;
12585;SDS011;6358;50.760;0.282;2022-11-14T09:40:51;5.00;;;2.87;;
12585;SDS011;6358;50.760;0.282;2022-11-14T09:45:49;4.05;;;2.80;;
12585;SDS011;6358;50.760;0.282;2022-11-14T09:48:17;4.70;;;2.97;;
12585;SDS011;6358;50.760;0.282;2022-11-14T09:50:45;4.67;;;2.70;;
12585;SDS011;6358;50.760;0.282;2022-11-14T09:53:16;4.20;;;2.72;;
12585;SDS011;6358;50.760;0.282;2022-11-14T09:55:44;4.03;;;2.70;;
12585;SDS011;6358;50.760;0.282;2022-11-14T09:58:14;4.60;;;2.87;;
12585;SDS011;6358;50.760;0.282;2022-11-14T10:03:15;8.95;;;2.90;;
12585;SDS011;6358;50.760;0.282;2022-11-14T10:13:31;5.35;;;3.13;;
12585;SDS011;6358;50.760;0.282;2022-11-14T10:16:06;7.22;;;3.05;;
12585;SDS011;6358;50.760;0.282;2022-11-14T10:18:45;3.50;;;2.78;;
12585;SDS011;6358;50.760;0.282;2022-11-14T10:21:34;4.03;;;2.60;;
12585;SDS011;6358;50.760;0.282;2022-11-14T10:26:31;4.72;;;3.05;;
12585;SDS011;6358;50.760;0.282;2022-11-14T10:34:10;5.40;;;2.70;;
12585;SDS011;6358;50.760;0.282;2022-11-14T10:42:00;4.20;;;2.60;;
12585;SDS011;6358;50.760;0.282;2022-11-14T10:44:38;4.43;;;2.60;;
12585;SDS011;6358;50.760;0.282;2022-11-14T10:47:09;4.90;;;2.97;;
12585;SDS011;6358;50.760;0.282;2022-11-14T10:49:37;4.50;;;2.80;;
12585;SDS011;6358;50.760;0.282;2022-11-14T10:52:05;5.00;;;3.00;;
12585;SDS011;6358;50.760;0.282;2022-11-14T10:54:49;3.27;;;2.67;;
12585;SDS011;6358;50.760;0.282;2022-11-14T10:57:17;4.17;;;2.80;;
12585;SDS011;6358;50.760;0.282;2022-11-14T10:59:43;3.60;;;2.63;;
12585;SDS011;6358;50.760;0.282;2022-11-14T11:02:11;3.15;;;2.50;;
12585;SDS011;6358;50.760;0.282;2022-11-14T11:04:38;4.70;;;2.40;;
12585;SDS011;6358;50.760;0.282;2022-11-14T11:09:38;3.33;;;2.57;;
12585;SDS011;6358;50.760;0.282;2022-11-14T11:12:23;3.07;;;2.43;;
12585;SDS011;6358;50.760;0.282;2022-11-14T11:15:06;4.10;;;2.60;;
12585;SDS011;6358;50.760;0.282;2022-11-14T11:17:33;2.70;;;2.40;;
12585;SDS011;6358;50.760;0.282;2022-11-14T11:22:44;3.35;;;2.47;;
12585;SDS011;6358;50.760;0.282;2022-11-14T11:25:21;2.67;;;2.47;;
12585;SDS011;6358;50.760;0.282;2022-11-14T11:28:00;4.93;;;2.47;;
12585;SDS011;6358;50.760;0.282;2022-11-14T11:30:28;4.20;;;2.40;;
12585;SDS011;6358;50.760;0.282;2022-11-14T11:32:54;3.17;;;2.28;;
12585;SDS011;6358;50.760;0.282;2022-11-14T11:35:20;4.50;;;2.17;;
12585;SDS011;6358;50.760;0.282;2022-11-14T11:37:56;3.95;;;2.60;;
12585;SDS011;6358;50.760;0.282;2022-11-14T11:40:25;2.93;;;2.30;;
12585;SDS011;6358;50.760;0.282;2022-11-14T11:42:57;3.23;;;2.27;;
12585;SDS011;6358;50.760;0.282;2022-11-14T11:45:24;3.57;;;2.20;;
12585;SDS011;6358;50.760;0.282;2022-11-14T11:47:55;3.57;;;2.17;;
12585;SDS011;6358;50.760;0.282;2022-11-14T11:50:22;3.03;;;2.30;;
12585;SDS011;6358;50.760;0.282;2022-11-14T11:55:38;3.92;;;2.40;;
12585;SDS011;6358;50.760;0.282;2022-11-14T12:00:44;2.57;;;2.00;;
12585;SDS011;6358;50.760;0.282;2022-11-14T12:03:11;2.90;;;2.10;;
12585;SDS011;6358;50.760;0.282;2022-11-14T12:05:45;2.93;;;2.30;;
12585;SDS011;6358;50.760;0.282;2022-11-14T12:10:45;4.50;;;2.30;;
12585;SDS011;6358;50.760;0.282;2022-11-14T12:23:39;2.97;;;2.20;;
12585;SDS011;6358;50.760;0.282;2022-11-14T12:28:41;2.65;;;2.15;;
12585;SDS011;6358;50.760;0.282;2022-11-14T12:31:11;2.23;;;2.00;;
12585;SDS011;6358;50.760;0.282;2022-11-14T12:33:39;2.92;;;2.20;;
12585;SDS011;6358;50.760;0.282;2022-11-14T12:36:08;2.72;;;2.00;;
12585;SDS011;6358;50.760;0.282;2022-11-14T12:41:08;2.38;;;2.10;;
12585;SDS011;6358;50.760;0.282;2022-11-14T12:43:36;3.45;;;2.10;;
12585;SDS011;6358;50.760;0.282;2022-11-14T12:46:03;4.15;;;2.15;;
12585;SDS011;6358;50.760;0.282;2022-11-14T12:48:36;2.30;;;2.10;;
12585;SDS011;6358;50.760;0.282;2022-11-14T12:51:03;2.05;;;1.85;;
12585;SDS011;6358;50.760;0.282;2022-11-14T12:58:35;2.15;;;1.95;;
12585;SDS011;6358;50.760;0.282;2022-11-14T13:03:49;2.72;;;2.00;;
12585;SDS011;6358;50.760;0.282;2022-11-14T13:14:14;2.15;;;1.90;;
12585;SDS011;6358;50.760;0.282;2022-11-14T13:20:05;4.70;;;2.13;;
12585;SDS011;6358;50.760;0.282;2022-11-14T13:23:03;2.72;;;1.98;;
12585;SDS011;6358;50.760;0.282;2022-11-14T13:25:29;2.15;;;1.92;;
12585;SDS011;6358;50.760;0.282;2022-11-14T13:27:56;2.97;;;2.30;;
12585;SDS011;6358;50.760;0.282;2022-11-14T13:33:38;2.15;;;1.92;;
12585;SDS011;6358;50.760;0.282;2022-11-14T13:46:51;2.08;;;1.90;;
12585;SDS011;6358;50.760;0.282;2022-11-14T13:51:50;2.30;;;1.98;;
12585;SDS011;6358;50.760;0.282;2022-11-14T13:54:16;2.17;;;1.80;;
12585;SDS011;6358;50.760;0.282;2022-11-14T14:02:15;3.95;;;2.20;;
12585;SDS011;6358;50.760;0.282;2022-11-14T14:04:52;2.63;;;2.10;;
12585;SDS011;6358;50.760;0.282;2022-11-14T14:12:59;2.03;;;1.80;;
12585;SDS011;6358;50.760;0.282;2022-11-14T14:15:32;2.00;;;1.80;;
12585;SDS011;6358;50.760;0.282;2022-11-14T14:20:37;2.38;;;2.03;;
12585;SDS011;6358;50.760;0.282;2022-11-14T14:31:08;3.83;;;2.03;;
12585;SDS011;6358;50.760;0.282;2022-11-14T14:33:39;5.93;;;1.90;;
12585;SDS011;6358;50.760;0.282;2022-11-14T14:41:46;4.22;;;2.00;;
12585;SDS011;6358;50.760;0.282;2022-11-14T14:44:32;2.67;;;1.73;;
12585;SDS011;6358;50.760;0.282;2022-11-14T14:47:14;3.90;;;2.08;;
12585;SDS011;6358;50.760;0.282;2022-11-14T14:49:41;4.88;;;2.35;;
12585;SDS011;6358;50.760;0.282;2022-11-14T14:52:21;2.97;;;2.03;;
12585;SDS011;6358;50.760;0.282;2022-11-14T14:54:53;3.20;;;1.80;;
12585;SDS011;6358;50.760;0.282;2022-11-14T14:57:19;3.08;;;2.00;;
12585;SDS011;6358;50.760;0.282;2022-11-14T14:59:45;3.03;;;1.92;;
12585;SDS011;6358;50.760;0.282;2022-11-14T15:02:12;2.42;;;2.03;;
12585;SDS011;6358;50.760;0.282;2022-11-14T15:04:40;3.65;;;2.10;;
12585;SDS011;6358;50.760;0.282;2022-11-14T15:07:16;2.80;;;1.95;;
12585;SDS011;6358;50.760;0.282;2022-11-14T15:09:51;2.70;;;2.00;;
12585;SDS011;6358;50.760;0.282;2022-11-14T15:12:17;2.03;;;1.80;;
12585;SDS011;6358;50.760;0.282;2022-11-14T15:14:43;2.70;;;1.98;;
12585;SDS011;6358;50.760;0.282;2022-11-14T15:17:09;3.03;;;1.93;;
12585;SDS011;6358;50.760;0.282;2022-11-14T15:19:38;2.17;;;1.65;;
12585;SDS011;6358;50.760;0.282;2022-11-14T15:24:39;3.03;;;2.30;;
12585;SDS011;6358;50.760;0.282;2022-11-14T15:27:19;2.88;;;2.00;;
12585;SDS011;6358;50.760;0.282;2022-11-14T15:29:46;2.53;;;1.85;;
12585;SDS011;6358;50.760;0.282;2022-11-14T15:32:19;1.70;;;1.60;;
12585;SDS011;6358;50.760;0.282;2022-11-14T15:37:31;3.05;;;1.88;;
12585;SDS011;6358;50.760;0.282;2022-11-14T15:42:59;2.08;;;1.88;;
12585;SDS011;6358;50.760;0.282;2022-11-14T15:45:37;2.45;;;1.80;;
12585;SDS011;6358;50.760;0.282;2022-11-14T15:48:08;2.38;;;2.00;;
12585;SDS011;6358;50.760;0.282;2022-11-14T15:50:36;3.42;;;2.35;;
12585;SDS011;6358;50.760;0.282;2022-11-14T15:53:03;6.07;;;2.30;;
12585;SDS011;6358;50.760;0.282;2022-11-14T15:55:29;3.03;;;2.10;;
12585;SDS011;6358;50.760;0.282;2022-11-14T15:57:55;3.22;;;2.28;;
12585;SDS011;6358;50.760;0.282;2022-11-14T16:00:21;6.05;;;2.40;;
12585;SDS011;6358;50.760;0.282;2022-11-14T16:02:54;2.67;;;2.00;;
12585;SDS011;6358;50.760;0.282;2022-11-14T16:05:25;3.20;;;1.95;;
12585;SDS011;6358;50.760;0.282;2022-11-14T16:07:52;2.90;;;2.00;;
12585;SDS011;6358;50.760;0.282;2022-11-14T16:10:22;4.68;;;2.33;;
12585;SDS011;6358;50.760;0.282;2022-11-14T16:12:48;3.40;;;2.15;;
12585;SDS011;6358;50.760;0.282;2022-11-14T16:15:15;2.38;;;2.17;;
12585;SDS011;6358;50.760;0.282;2022-11-14T16:17:43;3.90;;;2.10;;
12585;SDS011;6358;50.760;0.282;2022-11-14T16:20:13;3.95;;;2.17;;
12585;SDS011;6358;50.760;0.282;2022-11-14T16:22:41;4.18;;;2.33;;
12585;SDS011;6358;50.760;0.282;2022-11-14T16:25:11;2.90;;;2.20;;
12585;SDS011;6358;50.760;0.282;2022-11-14T16:27:39;2.40;;;2.00;;
12585;SDS011;6358;50.760;0.282;2022-11-14T16:30:05;2.78;;;2.20;;
12585;SDS011;6358;50.760;0.282;2022-11-14T16:32:32;3.40;;;2.00;;
12585;SDS011;6358;50.760;0.282;2022-11-14T16:34:58;4.35;;;2.20;;
12585;SDS011;6358;50.760;0.282;2022-11-14T16:37:24;3.72;;;2.30;;
12585;SDS011;6358;50.760;0.282;2022-11-14T16:39:50;3.92;;;2.08;;
12585;SDS011;6358;50.760;0.282;2022-11-14T16:42:16;2.22;;;1.90;;
12585;SDS011;6358;50.760;0.282;2022-11-14T16:44:42;3.60;;;2.10;;
12585;SDS011;6358;50.760;0.282;2022-11-14T16:47:10;2.30;;;1.95;;
12585;SDS011;6358;50.760;0.282;2022-11-14T16:49:37;2.42;;;2.08;;
12585;SDS011;6358;50.760;0.282;2022-11-14T16:52:04;3.50;;;2.30;;
12585;SDS011;6358;50.760;0.282;2022-11-14T16:54:32;2.38;;;1.98;;
12585;SDS011;6358;50.760;0.282;2022-11-14T16:56:58;2.95;;;2.08;;
12585;SDS011;6358;50.760;0.282;2022-11-14T16:59:24;5.20;;;2.25;;
12585;SDS011;6358;50.760;0.282;2022-11-14T17:01:51;2.67;;;2.08;;
12585;SDS011;6358;50.760;0.282;2022-11-14T17:04:17;3.50;;;2.17;;
12585;SDS011;6358;50.760;0.282;2022-11-14T17:06:43;2.05;;;1.90;;
12585;SDS011;6358;50.760;0.282;2022-11-14T17:09:10;2.40;;;2.00;;
12585;SDS011;6358;50.760;0.282;2022-11-14T17:11:37;5.10;;;2.20;;
12585;SDS011;6358;50.760;0.282;2022-11-14T17:14:03;2.35;;;1.90;;